Time;durP1;ratioP1;P1;durP2;ratioP2;P2;SDS_P1;SDS_P2;PMS_P1;PMS_P2;Temp;Humidity;BMP_temperature;BMP_pressure;BME280_temperature;BME280_humidity;BME280_pressure;Samples;Min_cycle;Max_cycle;Signal;HPM_P1;HPM_P2
2021/06/28 00:00:13;;;;;;;3.83;3.47;;;;;;;-144.99;73.17;52199.44;5068566;28;20232;-61
2021/06/28 00:02:40;;;;;;;5.07;2.67;;;;;;;-144.99;73.42;52185.16;5067902;28;20205;-60
2021/06/28 00:05:09;;;;;;;5.40;2.60;;;;;;;-144.99;73.47;52203.50;5071973;28;20208;-59
2021/06/28 00:07:38;;;;;;;5.30;2.97;;;;;;;-144.99;73.82;52219.81;5074135;28;20570;-59
2021/06/28 00:10:06;;;;;;;4.83;2.53;;;;;;;-144.99;73.93;52207.59;5071852;28;20242;-58
2021/06/28 00:12:33;;;;;;;4.67;2.80;;;;;;;-144.99;74.30;52195.34;5074702;28;20224;-60
2021/06/28 00:14:59;;;;;;;6.10;4.03;;;;;;;-144.99;74.38;52223.88;5072099;28;20570;-59
2021/06/28 00:17:26;;;;;;;3.50;2.57;;;;;;;-144.99;74.32;52191.28;5077888;28;20549;-59
2021/06/28 00:19:53;;;;;;;4.03;2.70;;;;;;;-144.99;74.52;52162.75;5073213;28;20243;-59
2021/06/28 00:22:20;;;;;;;3.33;2.50;;;;;;;-144.99;74.49;52195.34;5087271;28;20208;-61
2021/06/28 00:24:47;;;;;;;6.17;3.10;;;;;;;-144.99;74.63;52179.06;5080059;28;20689;-61
2021/06/28 00:27:14;;;;;;;4.50;2.97;;;;;;;-144.99;74.67;52236.13;5072074;28;20235;-61
2021/06/28 00:29:41;;;;;;;5.50;2.53;;;;;;;-144.99;74.92;52207.59;5078023;28;20220;-59
2021/06/28 00:32:08;;;;;;;3.43;2.03;;;;;;;-144.99;75.28;52195.34;5072759;28;20217;-61
2021/06/28 00:34:34;;;;;;;4.13;2.83;;;;;;;-144.99;75.49;52227.97;5071788;28;20216;-60
2021/06/28 00:37:02;;;;;;;3.77;2.73;;;;;;;-144.99;75.31;52215.75;5085001;28;20208;-60
2021/06/28 00:39:29;;;;;;;5.43;3.80;;;;;;;-144.99;75.46;52207.59;5079480;28;20605;-59
2021/06/28 00:41:56;;;;;;;7.20;2.97;;;;;;;-144.99;75.63;52203.50;5072098;28;20236;-61
2021/06/28 00:44:23;;;;;;;5.87;2.33;;;;;;;-144.99;75.68;52199.44;5072114;28;20215;-59
2021/06/28 00:46:50;;;;;;;4.80;3.13;;;;;;;-144.99;75.86;52215.75;5071602;28;20216;-60
2021/06/28 00:49:16;;;;;;;5.43;3.20;;;;;;;-144.99;76.20;52211.66;5071131;28;20229;-59
2021/06/28 00:51:44;;;;;;;5.27;2.57;;;;;;;-144.99;76.20;52193.31;5072888;28;20303;-58
2021/06/28 00:54:11;;;;;;;3.83;2.67;;;;;;;-144.99;76.21;52215.75;5086503;28;20662;-58
2021/06/28 00:56:38;;;;;;;6.17;3.17;;;;;;;-144.99;76.49;52207.59;5076880;28;20204;-58
2021/06/28 00:59:07;;;;;;;3.40;2.47;;;;;;;-144.99;76.61;52193.31;5070866;28;20736;-57
2021/06/28 01:01:34;;;;;;;3.47;3.07;;;;;;;-144.99;76.59;52217.78;5071369;28;20220;-58
2021/06/28 01:04:00;;;;;;;5.97;4.17;;;;;;;-144.99;76.77;52260.56;5071016;28;20208;-58
2021/06/28 01:06:27;;;;;;;5.97;4.17;;;;;;;-144.99;77.05;52207.59;5077340;28;20655;-57
2021/06/28 01:08:53;;;;;;;5.87;3.60;;;;;;;-144.99;77.46;52227.97;5070679;28;20715;-58
2021/06/28 01:11:20;;;;;;;5.87;3.80;;;;;;;-144.99;77.50;52195.34;5070698;28;20205;-58
2021/06/28 01:13:47;;;;;;;6.67;3.50;;;;;;;-144.99;77.53;52244.28;5072651;28;20232;-57
2021/06/28 01:16:15;;;;;;;14.03;3.57;;;;;;;-144.99;77.74;52227.97;5071360;28;20585;-57
2021/06/28 01:18:42;;;;;;;5.23;3.67;;;;;;;-144.99;77.90;52232.03;5074058;28;20233;-58
2021/06/28 01:21:11;;;;;;;4.97;3.30;;;;;;;-144.99;77.87;52211.66;5082566;28;20208;-60
2021/06/28 01:23:39;;;;;;;7.07;3.73;;;;;;;-144.99;77.72;52219.81;5079862;28;20696;-61
2021/06/28 01:26:08;;;;;;;4.93;3.40;;;;;;;-144.99;77.76;52211.66;5071006;28;20396;-59
2021/06/28 01:28:35;;;;;;;6.33;4.20;;;;;;;-144.99;77.89;52191.28;5070835;28;20229;-60
2021/06/28 01:31:04;;;;;;;7.33;3.90;;;;;;;-144.99;78.08;52207.59;5077812;28;20202;-58
2021/06/28 01:33:31;;;;;;;5.10;3.63;;;;;;;-144.99;78.10;52174.97;5070956;28;20570;-59
2021/06/28 01:35:58;;;;;;;6.50;3.97;;;;;;;-144.99;78.36;52217.78;5078842;28;20204;-59
2021/06/28 01:38:25;;;;;;;5.63;3.67;;;;;;;-144.99;78.46;52236.13;5083454;28;20235;-59
2021/06/28 01:40:54;;;;;;;3.63;2.87;;;;;;;-144.99;78.55;52195.34;5070573;28;20212;-59
2021/06/28 01:43:23;;;;;;;6.37;4.17;;;;;;;-144.99;78.70;52201.47;5070743;28;20596;-59
2021/06/28 01:45:50;;;;;;;7.20;4.70;;;;;;;-144.99;79.12;52211.66;5070690;28;20282;-59
2021/06/28 01:48:16;;;;;;;6.53;4.60;;;;;;;-144.99;79.38;52211.66;5070605;28;20224;-59
2021/06/28 01:50:46;;;;;;;6.67;4.00;;;;;;;-144.99;79.59;52227.97;5069619;28;20638;-61
2021/06/28 01:53:14;;;;;;;5.13;4.30;;;;;;;-144.99;79.83;52238.16;5083400;28;20295;-61
2021/06/28 01:55:41;;;;;;;8.00;4.13;;;;;;;-144.99;80.11;52211.66;5082339;28;20208;-61
2021/06/28 01:58:12;;;;;;;6.60;4.30;;;;;;;-144.99;80.15;52203.50;5071716;28;20232;-59
2021/06/28 02:00:42;;;;;;;5.37;4.60;;;;;;;-144.99;80.25;52215.75;5068739;28;20615;-59
2021/06/28 02:03:10;;;;;;;6.43;4.27;;;;;;;-144.99;80.44;52195.34;5069548;28;20215;-59
2021/06/28 02:05:39;;;;;;;5.90;4.47;;;;;;;-144.99;80.50;52215.75;5076530;28;20208;-63
2021/06/28 02:08:07;;;;;;;6.27;4.67;;;;;;;-144.99;80.78;52207.59;5082886;28;20208;-60
2021/06/28 02:10:34;;;;;;;8.83;5.37;;;;;;;-144.99;80.73;52248.34;5068804;28;20216;-60
2021/06/28 02:13:01;;;;;;;6.60;4.87;;;;;;;-144.99;80.96;52215.75;5071978;28;20838;-58
2021/06/28 02:15:30;;;;;;;10.20;5.10;;;;;;;-144.99;81.29;52248.34;5069122;28;20219;-57
2021/06/28 02:17:58;;;;;;;7.57;5.40;;;;;;;-144.99;81.41;52223.88;5075067;28;20211;-58
2021/06/28 02:20:25;;;;;;;10.77;6.40;;;;;;;-144.99;81.86;52215.75;5073897;28;20204;-58
2021/06/28 02:22:52;;;;;;;7.90;5.43;;;;;;;-144.99;82.07;52215.75;5089308;28;20204;-58
2021/06/28 02:25:20;;;;;;;8.47;5.70;;;;;;;-144.99;82.04;52219.81;5072316;28;20259;-59
2021/06/28 02:27:47;;;;;;;6.70;5.43;;;;;;;-144.99;82.44;52232.03;5069140;28;20213;-59
2021/06/28 02:30:16;;;;;;;7.77;5.80;;;;;;;-144.99;82.89;52207.59;5056797;22;1062085;-69
2021/06/28 02:32:45;;;;;;;10.03;5.70;;;;;;;-144.99;82.92;52254.47;5077411;28;20213;-72
2021/06/28 02:35:14;;;;;;;9.00;6.53;;;;;;;-144.99;83.48;52236.13;5078830;28;20226;-71
2021/06/28 02:37:41;;;;;;;10.20;6.37;;;;;;;-144.99;83.34;52238.16;5074512;28;20566;-72
2021/06/28 02:40:11;;;;;;;8.53;5.93;;;;;;;-144.99;83.71;52227.97;5070154;28;20244;-73
2021/06/28 02:42:38;;;;;;;9.30;7.07;;;;;;;-144.99;83.99;52240.19;5068153;28;20224;-73
2021/06/28 02:45:06;;;;;;;16.83;7.67;;;;;;;-144.99;84.27;52187.19;5068202;28;20211;-75
2021/06/28 02:47:33;;;;;;;9.70;7.20;;;;;;;-144.99;84.69;52236.13;5068033;28;20249;-73
2021/06/28 02:50:01;;;;;;;16.77;8.63;;;;;;;-144.99;84.36;52209.63;5068352;28;20228;-72
2021/06/28 02:52:28;;;;;;;8.77;7.03;;;;;;;-144.99;84.53;52207.59;5067868;28;20292;-73
2021/06/28 02:54:54;;;;;;;9.20;7.07;;;;;;;-144.99;84.56;52170.91;5068213;28;20205;-73
2021/06/28 02:57:21;;;;;;;9.97;7.73;;;;;;;-144.99;84.61;52207.59;5068195;28;20219;-73
2021/06/28 02:59:47;;;;;;;10.67;8.57;;;;;;;-144.99;84.81;52199.44;5067547;28;20248;-73
2021/06/28 03:02:14;;;;;;;10.73;7.43;;;;;;;-144.99;84.55;52215.75;5067394;28;20212;-73
2021/06/28 03:04:40;;;;;;;9.70;7.03;;;;;;;-144.99;84.54;52244.28;5068321;28;20220;-71
2021/06/28 03:07:08;;;;;;;12.73;8.13;;;;;;;-144.99;84.54;52195.34;5069463;28;20231;-71
2021/06/28 03:09:35;;;;;;;12.00;8.30;;;;;;;-144.99;84.46;52211.66;5068797;28;20598;-72
2021/06/28 03:12:01;;;;;;;10.20;7.97;;;;;;;-144.99;84.68;52215.75;5068192;28;20216;-72
2021/06/28 03:14:28;;;;;;;9.43;7.57;;;;;;;-144.99;84.37;52162.75;5067943;28;20212;-71
2021/06/28 03:16:54;;;;;;;9.10;6.77;;;;;;;-144.99;84.43;52199.44;5067740;28;20215;-71
2021/06/28 03:19:21;;;;;;;11.73;9.53;;;;;;;-144.99;84.17;52215.75;5068202;28;20239;-72
2021/06/28 03:21:48;;;;;;;10.03;8.07;;;;;;;-144.99;84.45;52230.00;5067390;28;20579;-71
2021/06/28 03:24:16;;;;;;;11.37;8.17;;;;;;;-144.99;84.55;52191.28;5067865;28;20211;-71
2021/06/28 03:26:42;;;;;;;13.80;9.80;;;;;;;-144.99;84.48;52236.13;5068561;28;20231;-72
2021/06/28 03:29:09;;;;;;;9.97;6.33;;;;;;;-144.99;84.22;52191.28;5067048;28;20228;-66
2021/06/28 03:31:35;;;;;;;9.63;8.20;;;;;;;-144.99;84.59;52174.97;5067511;28;20232;-66
2021/06/28 03:34:02;;;;;;;8.80;7.80;;;;;;;-144.99;84.42;52197.41;5067907;28;20212;-65
2021/06/28 03:36:28;;;;;;;12.13;7.83;;;;;;;-144.99;84.36;52179.06;5066835;28;20223;-65
2021/06/28 03:38:55;;;;;;;11.47;7.97;;;;;;;-144.99;84.52;52199.44;5067605;28;20233;-67
2021/06/28 03:41:23;;;;;;;10.67;8.20;;;;;;;-144.99;84.59;52227.97;5067717;28;20216;-67
2021/06/28 03:43:49;;;;;;;11.53;8.57;;;;;;;-144.99;84.31;52162.75;5071307;28;20213;-68
2021/06/28 03:46:16;;;;;;;10.47;8.70;;;;;;;-144.99;84.71;52207.59;5070989;28;20579;-67
2021/06/28 03:48:43;;;;;;;11.43;9.60;;;;;;;-144.99;84.84;52223.88;5071437;28;20228;-70
2021/06/28 03:51:10;;;;;;;13.60;10.33;;;;;;;-144.99;85.50;52232.03;5070717;28;20497;-69
2021/06/28 03:53:36;;;;;;;11.67;9.50;;;;;;;-144.99;85.38;52207.59;5071212;28;20204;-69
2021/06/28 03:56:07;;;;;;;17.03;11.53;;;;;;;-144.99;85.77;52185.16;5071510;28;20223;-70
2021/06/28 03:58:36;;;;;;;10.37;8.87;;;;;;;-144.99;85.48;52207.59;5070742;28;20247;-71
2021/06/28 04:01:03;;;;;;;12.33;9.33;;;;;;;-144.99;85.70;52199.44;5071009;28;20215;-70
2021/06/28 04:03:32;;;;;;;12.37;9.77;;;;;;;-144.99;85.42;52177.00;5070817;28;20212;-70
2021/06/28 04:06:01;;;;;;;12.93;10.77;;;;;;;-144.99;85.38;52232.03;5070908;28;20685;-70
2021/06/28 04:08:27;;;;;;;9.87;8.87;;;;;;;-144.99;85.35;52199.44;5070731;28;20582;-70
2021/06/28 04:10:54;;;;;;;11.60;9.47;;;;;;;-144.99;85.38;52187.19;5070747;28;20204;-70
2021/06/28 04:13:21;;;;;;;15.60;9.97;;;;;;;-144.99;85.10;52189.25;5070512;28;20209;-70
2021/06/28 04:15:50;;;;;;;13.03;10.90;;;;;;;-144.99;85.07;52227.97;5070223;28;20227;-68
2021/06/28 04:18:17;;;;;;;10.67;8.10;;;;;;;-144.99;85.17;52195.34;5070271;28;20676;-68
2021/06/28 04:20:44;;;;;;;15.17;9.97;;;;;;;-144.99;84.86;52215.75;5069832;28;20702;-68
2021/06/28 04:23:11;;;;;;;10.87;9.00;;;;;;;-144.99;84.84;52199.44;5070073;28;20235;-68
2021/06/28 04:25:37;;;;;;;13.73;9.37;;;;;;;-144.99;84.45;52183.13;5070695;28;20558;-70
2021/06/28 04:28:05;;;;;;;11.87;9.77;;;;;;;-144.99;84.10;52177.00;5070596;28;20209;-69
2021/06/28 04:30:31;;;;;;;14.17;9.57;;;;;;;-144.99;84.08;52177.00;5070392;28;20559;-68
2021/06/28 04:32:59;;;;;;;10.97;8.87;;;;;;;-144.99;83.65;52162.75;5070827;28;20227;-68
2021/06/28 04:35:29;;;;;;;14.17;9.17;;;;;;;-144.99;83.50;52187.19;5070507;28;20464;-69
2021/06/28 04:37:56;;;;;;;12.80;10.50;;;;;;;-144.99;83.22;52160.72;5070767;28;20234;-69
2021/06/28 04:40:25;;;;;;;13.37;10.07;;;;;;;-144.99;83.39;52207.59;5070129;28;20233;-69
2021/06/28 04:42:51;;;;;;;12.27;10.43;;;;;;;-144.99;82.97;52177.00;5070695;28;20235;-67
2021/06/28 04:45:19;;;;;;;12.77;8.53;;;;;;;-144.99;82.82;52199.44;5070685;28;20209;-68
2021/06/28 04:47:47;;;;;;;11.80;8.60;;;;;;;-144.99;82.63;52166.81;5070408;28;20220;-67
2021/06/28 04:50:16;;;;;;;11.00;9.33;;;;;;;-144.99;82.55;52211.66;5069507;28;20232;-67
2021/06/28 04:52:44;;;;;;;10.53;9.10;;;;;;;-144.99;82.74;52195.34;5063874;28;20390;-67
2021/06/28 04:55:13;;;;;;;9.00;7.77;;;;;;;-144.99;82.44;52183.13;5066014;28;20287;-70
2021/06/28 04:57:39;;;;;;;10.80;7.87;;;;;;;-144.99;82.21;52170.91;5064008;28;20694;-69
2021/06/28 05:00:09;;;;;;;12.40;9.33;;;;;;;-144.99;82.14;52207.59;5070420;28;20362;-68
2021/06/28 05:02:35;;;;;;;13.43;9.23;;;;;;;-144.99;81.98;52179.06;5069434;28;20261;-68
2021/06/28 05:05:02;;;;;;;10.90;8.87;;;;;;;-144.99;81.65;52156.63;5070112;28;20227;-66
2021/06/28 05:07:30;;;;;;;18.53;10.03;;;;;;;-144.99;81.39;52215.75;5068505;28;20702;-66
2021/06/28 05:09:56;;;;;;;10.73;8.00;;;;;;;-144.99;81.07;52203.50;5069200;28;20228;-63
2021/06/28 05:12:23;;;;;;;13.03;9.97;;;;;;;-144.99;81.19;52197.41;5069608;28;20240;-64
2021/06/28 05:14:50;;;;;;;13.57;9.87;;;;;;;-144.99;80.75;52174.97;5069075;28;20220;-63
2021/06/28 05:17:16;;;;;;;15.97;10.37;;;;;;;-144.99;80.59;52170.91;5069546;28;20236;-63
2021/06/28 05:19:44;;;;;;;13.33;8.13;;;;;;;-144.99;80.36;52156.63;5068405;28;20268;-63
2021/06/28 05:22:10;;;;;;;10.97;8.43;;;;;;;-144.99;80.09;52154.59;5066029;28;20313;-63
2021/06/28 05:24:38;;;;;;;11.23;8.13;;;;;;;-144.99;80.07;52164.78;5068170;28;20685;-64
2021/06/28 05:27:08;;;;;;;9.67;7.33;;;;;;;-144.99;79.99;52172.94;5068709;28;20220;-63
2021/06/28 05:29:35;;;;;;;16.67;10.40;;;;;;;-144.99;79.56;52156.63;5068375;28;20241;-64
2021/06/28 05:32:02;;;;;;;15.13;9.97;;;;;;;-144.99;79.27;52187.19;5069423;28;20215;-64
2021/06/28 05:34:29;;;;;;;10.77;9.47;;;;;;;-144.99;78.93;52166.81;5068968;28;20218;-64
2021/06/28 05:36:55;;;;;;;9.57;8.53;;;;;;;-144.99;78.64;52170.91;5068438;28;20740;-70
2021/06/28 05:39:22;;;;;;;11.77;9.13;;;;;;;-144.99;78.59;52124.03;5068859;28;20230;-74
2021/06/28 05:41:50;;;;;;;12.60;8.23;;;;;;;-144.99;78.52;52158.66;5069549;28;20215;-74
2021/06/28 05:44:16;;;;;;;11.70;7.90;;;;;;;-144.99;78.45;52166.81;5069688;28;20575;-74
2021/06/28 05:46:43;;;;;;;9.10;7.23;;;;;;;-144.99;78.16;52170.91;5070186;28;20688;-76
2021/06/28 05:49:09;;;;;;;11.20;8.57;;;;;;;-144.99;77.97;52154.59;5069515;28;20648;-75
2021/06/28 05:51:36;;;;;;;8.93;6.90;;;;;;;-144.99;77.43;52138.28;5054776;28;20314;-74
2021/06/28 05:54:03;;;;;;;12.37;9.13;;;;;;;-144.99;77.28;52130.13;5064436;28;20661;-74
2021/06/28 05:56:29;;;;;;;8.47;6.90;;;;;;;-144.99;76.63;52124.03;5068766;28;20215;-74
2021/06/28 05:58:57;;;;;;;10.13;8.77;;;;;;;-144.99;76.24;52130.13;5069402;28;20258;-74
2021/06/28 06:01:24;;;;;;;11.53;8.50;;;;;;;-144.99;76.08;52158.66;5055276;28;20694;-69
2021/06/28 06:03:50;;;;;;;11.37;7.73;;;;;;;-144.99;75.88;52113.84;5068082;28;20213;-69
2021/06/28 06:06:17;;;;;;;12.57;7.80;;;;;;;-144.99;75.17;52174.97;5067708;28;20209;-69
2021/06/28 06:08:43;;;;;;;11.37;6.53;;;;;;;-144.99;74.71;52174.97;5068024;28;20229;-70
2021/06/28 06:11:10;;;;;;;14.00;9.53;;;;;;;-144.99;74.96;52150.53;5068195;28;20216;-69
2021/06/28 06:13:37;;;;;;;10.97;8.30;;;;;;;-144.99;74.89;52101.59;5068260;28;20212;-69
2021/06/28 06:16:05;;;;;;;11.00;6.83;;;;;;;-144.99;74.23;52130.13;5068392;28;20223;-69
2021/06/28 06:18:31;;;;;;;10.47;7.90;;;;;;;-144.99;73.12;52142.38;5068037;28;20708;-69
2021/06/28 06:20:58;;;;;;;11.30;7.23;;;;;;;-144.99;73.00;52142.38;5063116;28;20230;-69
2021/06/28 06:23:25;;;;;;;10.90;9.80;;;;;;;-144.99;72.55;52113.84;5067968;28;20205;-69
2021/06/28 06:25:52;;;;;;;15.07;9.73;;;;;;;-144.99;72.95;52134.22;5067567;28;20214;-69
2021/06/28 06:28:18;;;;;;;8.43;6.27;;;;;;;-144.99;72.22;52121.97;5068334;28;20212;-68
2021/06/28 06:30:45;;;;;;;7.53;5.93;;;;;;;-144.99;72.01;52121.97;5068104;28;20581;-73
2021/06/28 06:33:13;;;;;;;8.43;6.00;;;;;;;-144.99;72.00;52134.22;5068515;28;20217;-72
2021/06/28 06:35:40;;;;;;;8.27;6.37;;;;;;;-144.99;71.51;52099.56;5055454;28;20214;-74
2021/06/28 06:38:07;;;;;;;7.97;6.30;;;;;;;-144.99;71.10;52113.84;5068599;28;20203;-71
2021/06/28 06:40:34;;;;;;;10.70;6.73;;;;;;;-144.99;70.42;52105.69;5068524;28;20685;-74
2021/06/28 06:43:01;;;;;;;6.97;5.50;;;;;;;-144.99;69.56;52111.78;5068457;28;20211;-73
2021/06/28 06:45:28;;;;;;;7.33;5.37;;;;;;;-144.99;68.98;52101.59;5068977;28;20295;-73
2021/06/28 06:47:55;;;;;;;8.00;5.47;;;;;;;-144.99;67.76;52146.44;5068005;28;20438;-69
2021/06/28 06:50:23;;;;;;;13.33;6.07;;;;;;;-144.99;67.16;52089.38;5067199;28;20225;-68
2021/06/28 06:52:50;;;;;;;6.97;4.93;;;;;;;-144.99;66.50;52085.31;5057409;28;20215;-67
2021/06/28 06:55:18;;;;;;;8.43;5.80;;;;;;;-144.99;66.42;52097.53;5067364;28;20222;-68
2021/06/28 06:57:45;;;;;;;6.50;5.23;;;;;;;-144.99;66.45;52077.16;5067658;28;20215;-70
2021/06/28 07:00:15;;;;;;;10.10;6.73;;;;;;;-144.99;65.46;52097.53;5069770;28;20229;-71
2021/06/28 07:02:41;;;;;;;7.63;5.60;;;;;;;-144.99;65.64;52109.75;5066855;28;20211;-67
2021/06/28 07:05:09;;;;;;;5.67;4.83;;;;;;;-144.99;62.83;52089.38;5067728;28;20233;-67
2021/06/28 07:07:37;;;;;;;10.27;6.73;;;;;;;-144.99;62.62;52105.69;5067830;28;20209;-66
2021/06/28 07:10:06;;;;;;;10.20;5.67;;;;;;;-144.99;62.53;52079.19;5068012;28;20316;-69
2021/06/28 07:12:32;;;;;;;10.73;5.67;;;;;;;-144.99;63.06;52081.22;5067286;28;20212;-68
2021/06/28 07:14:59;;;;;;;8.30;5.80;;;;;;;-144.99;63.51;52121.97;5067936;28;20221;-68
2021/06/28 07:17:26;;;;;;;6.23;5.03;;;;;;;-144.99;62.75;52058.81;5069218;28;20215;-66
2021/06/28 07:19:52;;;;;;;6.90;4.83;;;;;;;-144.99;62.08;52105.69;5069505;28;20241;-66
2021/06/28 07:22:19;;;;;;;7.63;5.03;;;;;;;-144.99;62.12;52115.88;5070137;28;20573;-66
2021/06/28 07:24:47;;;;;;;6.87;5.77;;;;;;;-144.99;61.29;52105.69;5072442;28;20241;-66
2021/06/28 07:27:14;;;;;;;11.93;5.23;;;;;;;-144.99;60.86;52130.13;5071972;28;20216;-66
2021/06/28 07:29:41;;;;;;;9.30;4.43;;;;;;;-144.99;60.29;52052.69;5073351;28;20595;-69
2021/06/28 07:32:08;;;;;;;9.57;5.40;;;;;;;-144.99;60.14;52064.91;5063260;28;20614;-70
2021/06/28 07:34:35;;;;;;;11.10;4.30;;;;;;;-144.99;60.52;52064.91;5070462;28;20218;-69
2021/06/28 07:37:03;;;;;;;6.20;5.00;;;;;;;-144.99;59.65;52093.44;5068034;28;20210;-69
2021/06/28 07:39:29;;;;;;;6.67;4.43;;;;;;;-144.99;58.11;52117.91;5063640;28;20219;-69
2021/06/28 07:41:57;;;;;;;5.17;4.17;;;;;;;-144.99;58.81;52105.69;5072231;28;20231;-70
2021/06/28 07:44:25;;;;;;;9.33;4.40;;;;;;;-144.99;59.44;52099.56;5072597;28;20214;-70
2021/06/28 07:46:53;;;;;;;7.37;5.00;;;;;;;-144.99;60.46;52113.84;5072787;28;20306;-70
2021/06/28 07:49:20;;;;;;;7.77;5.83;;;;;;;-144.99;61.25;52105.69;5071868;28;20278;-69
2021/06/28 07:51:46;;;;;;;5.83;4.33;;;;;;;-144.99;60.54;52095.50;5067782;28;20601;-70
2021/06/28 07:54:15;;;;;;;6.90;4.80;;;;;;;-144.99;61.34;52126.06;5067355;28;20214;-70
2021/06/28 07:56:41;;;;;;;8.07;4.67;;;;;;;-144.99;61.86;52105.69;5063971;28;20310;-69
2021/06/28 07:59:09;;;;;;;7.60;4.37;;;;;;;-144.99;62.40;52117.91;5071084;28;20511;-70
2021/06/28 08:01:36;;;;;;;6.50;4.93;;;;;;;-144.99;61.98;52126.06;5057699;28;20643;-69
2021/06/28 08:04:03;;;;;;;9.67;5.27;;;;;;;-144.99;62.53;52152.56;5071202;28;20214;-70
2021/06/28 08:06:30;;;;;;;9.70;4.90;;;;;;;-144.99;62.99;52138.28;5064734;28;20645;-69
2021/06/28 08:08:56;;;;;;;8.43;5.63;;;;;;;-144.99;63.31;52101.59;5064510;28;20248;-70
2021/06/28 08:11:25;;;;;;;7.37;4.83;;;;;;;-144.99;62.78;52113.84;5071557;28;20193;-70
2021/06/28 08:13:53;;;;;;;8.40;5.37;;;;;;;-144.99;62.51;52095.50;5070749;28;20614;-70
2021/06/28 08:16:23;;;;;;;6.30;4.63;;;;;;;-144.99;61.41;52126.06;5070548;28;20216;-70
2021/06/28 08:18:51;;;;;;;7.23;4.20;;;;;;;-144.99;61.25;52064.91;5069934;28;20260;-70
2021/06/28 08:21:18;;;;;;;6.57;5.17;;;;;;;-144.99;61.02;52089.38;5069696;28;20314;-70
2021/06/28 08:23:45;;;;;;;6.30;4.07;;;;;;;-144.99;60.42;52105.69;5068592;28;20677;-71
2021/06/28 08:26:12;;;;;;;5.90;4.27;;;;;;;-144.99;59.35;52071.03;5078990;28;20206;-69
2021/06/28 08:28:39;;;;;;;5.10;3.80;;;;;;;-144.99;57.89;52081.22;5074951;28;20266;-70
2021/06/28 08:31:07;;;;;;;7.83;3.63;;;;;;;-144.99;57.13;52036.38;5066641;28;20242;-70
2021/06/28 08:33:36;;;;;;;8.83;4.00;;;;;;;-144.99;56.74;52032.31;5066960;28;20213;-69
2021/06/28 08:36:02;;;;;;;8.53;4.40;;;;;;;-144.99;55.71;52044.53;5069413;28;20213;-68
2021/06/28 08:38:29;;;;;;;8.30;4.63;;;;;;;-144.99;55.91;52024.16;5068322;28;20233;-70
2021/06/28 08:43:23;;;;;;;5.13;3.77;;;;;;;-144.99;54.10;52018.03;5076121;28;20215;-61
2021/06/28 08:45:53;;;;;;;6.43;5.23;;;;;;;-144.99;53.17;52064.91;5071152;28;20212;-59
2021/06/28 08:48:20;;;;;;;6.30;4.80;;;;;;;-144.99;53.35;52007.84;5071465;28;20301;-59
2021/06/28 08:50:49;;;;;;;13.37;5.57;;;;;;;-144.99;51.64;52003.78;5081070;28;20212;-59
2021/06/28 08:53:20;;;;;;;6.20;4.17;;;;;;;-144.99;52.60;52044.53;5086774;28;20213;-59
2021/06/28 08:55:47;;;;;;;6.53;4.47;;;;;;;-144.99;52.24;51999.69;5090125;28;20288;-59
2021/06/28 08:58:14;;;;;;;6.40;4.03;;;;;;;-144.99;51.63;52058.81;5081240;28;20204;-59
2021/06/28 09:00:40;;;;;;;7.30;4.67;;;;;;;-144.99;51.15;52016.00;5081383;28;20233;-58
2021/06/28 09:03:08;;;;;;;6.27;3.90;;;;;;;-144.99;50.53;52016.00;5084887;28;20244;-58
2021/06/28 09:05:52;;;;;;;5.50;3.50;;;;;;;-144.99;50.36;52024.16;5077854;28;20201;-60
2021/06/28 09:08:22;;;;;;;5.20;3.40;;;;;;;-144.99;50.15;52018.03;5079443;28;20222;-60
2021/06/28 09:10:49;;;;;;;6.63;4.67;;;;;;;-144.99;49.09;52024.16;5070289;28;20295;-59
2021/06/28 09:13:16;;;;;;;7.03;4.07;;;;;;;-144.99;48.98;52060.84;5072613;28;20202;-61
2021/06/28 09:15:44;;;;;;;8.03;5.27;;;;;;;-144.99;48.68;51995.63;5071085;28;20215;-60
2021/06/28 09:18:16;;;;;;;10.87;4.60;;;;;;;-144.99;48.51;52036.38;5083007;28;20233;-60
2021/06/28 09:20:43;;;;;;;6.23;4.27;;;;;;;-144.99;48.69;52028.22;5088478;28;20227;-60
2021/06/28 09:23:21;;;;;;;7.67;5.43;;;;;;;-144.99;47.88;51971.16;5078419;28;20214;-60
2021/06/28 09:25:47;;;;;;;7.07;4.00;;;;;;;-144.99;47.97;52016.00;5070778;28;20219;-61
2021/06/28 09:28:14;;;;;;;8.03;3.77;;;;;;;-144.99;47.11;52036.38;5070267;28;20211;-59
2021/06/28 09:30:49;;;;;;;6.40;4.27;;;;;;;-144.99;47.31;51987.47;5077139;28;20574;-60
2021/06/28 09:33:19;;;;;;;9.20;4.07;;;;;;;-144.99;46.70;52003.78;5072669;28;20577;-60
2021/06/28 09:35:46;;;;;;;6.80;4.70;;;;;;;-144.99;46.03;52003.78;5094833;28;20256;-60
2021/06/28 09:38:37;;;;;;;4.83;3.90;;;;;;;-144.99;45.72;52003.78;5088079;28;20211;-60
2021/06/28 09:41:25;;;;;;;6.80;3.57;;;;;;;-144.99;44.71;52020.09;5068628;28;20674;-59
2021/06/28 09:43:53;;;;;;;7.73;4.00;;;;;;;-144.99;44.78;51979.31;5077734;28;20216;-60
2021/06/28 09:46:21;;;;;;;6.30;4.20;;;;;;;-144.99;44.44;52026.19;5090218;28;20223;-59
2021/06/28 09:48:49;;;;;;;6.00;4.07;;;;;;;-144.99;44.71;51981.38;5090435;28;20223;-59
2021/06/28 09:51:21;;;;;;;4.63;3.50;;;;;;;-144.99;44.79;51979.31;5082705;28;20294;-59
2021/06/28 09:53:50;;;;;;;7.57;4.63;;;;;;;-144.99;44.41;52005.81;5084818;28;20359;-61
2021/06/28 09:56:34;;;;;;;6.47;4.40;;;;;;;-144.99;43.57;52016.00;5078253;28;20212;-59
2021/06/28 09:59:19;;;;;;;7.33;3.93;;;;;;;-144.99;43.73;51991.56;5069636;28;20236;-59
2021/06/28 10:01:46;;;;;;;4.83;3.87;;;;;;;-144.99;43.85;51963.03;5086377;28;20251;-58
2021/06/28 10:04:36;;;;;;;6.67;4.27;;;;;;;-144.99;44.01;52001.75;5093693;28;20196;-59
2021/06/28 10:07:23;;;;;;;10.77;3.97;;;;;;;-144.99;43.08;51971.16;5080261;28;20211;-59
2021/06/28 10:10:22;;;;;;;7.37;3.43;;;;;;;-144.99;42.66;51954.88;5090652;28;20216;-59
2021/06/28 10:13:01;;;;;;;5.40;3.23;;;;;;;-144.99;41.96;51938.56;5089476;28;20711;-60
2021/06/28 10:15:29;;;;;;;4.80;3.80;;;;;;;-144.99;41.78;51942.63;5092672;28;20629;-59
2021/06/28 10:17:56;;;;;;;6.43;3.57;;;;;;;-144.99;41.54;51897.81;5086784;28;20211;-59
2021/06/28 10:20:25;;;;;;;4.67;3.40;;;;;;;-144.99;39.82;51963.03;5088004;28;20232;-60
2021/06/28 10:22:54;;;;;;;6.53;4.67;;;;;;;-144.99;40.72;51995.63;5076636;28;20224;-60
2021/06/28 10:25:24;;;;;;;4.50;3.30;;;;;;;-144.99;40.16;51963.03;5085544;28;20237;-59
2021/06/28 10:27:51;;;;;;;8.13;3.47;;;;;;;-144.99;39.85;51963.03;5092126;28;20211;-59
2021/06/28 10:30:21;;;;;;;4.37;3.57;;;;;;;-144.99;39.51;51948.75;5084817;28;20231;-58
2021/06/28 10:32:50;;;;;;;4.10;3.03;;;;;;;-144.99;39.40;51997.66;5089788;28;20721;-59
2021/06/28 10:35:23;;;;;;;6.27;3.23;;;;;;;-144.99;40.05;51979.31;5089244;28;20478;-59
2021/06/28 10:37:50;;;;;;;4.97;3.50;;;;;;;-144.99;39.84;51954.88;5077119;28;20204;-59
2021/06/28 10:40:19;;;;;;;4.50;3.67;;;;;;;-144.99;39.15;51918.19;5071153;28;20228;-60
2021/06/28 10:42:49;;;;;;;4.20;3.13;;;;;;;-144.99;39.43;51956.91;5069409;28;20644;-59
2021/06/28 10:45:36;;;;;;;5.47;3.07;;;;;;;-144.99;38.86;51977.28;5069039;28;20238;-58
2021/06/28 10:48:22;;;;;;;3.70;3.00;;;;;;;-144.99;39.81;51942.63;5069037;28;20265;-59
2021/06/28 10:50:55;;;;;;;4.50;3.73;;;;;;;-144.99;40.27;51987.47;5068336;28;20212;-59
2021/06/28 10:54:05;;;;;;;7.40;4.77;;;;;;;-144.99;38.85;52003.78;5077909;28;20223;-59
2021/06/28 10:56:57;;;;;;;5.80;3.77;;;;;;;-144.99;38.31;51930.41;5058944;28;20209;-59
2021/06/28 10:59:31;;;;;;;8.20;2.77;;;;;;;-144.99;38.35;52028.22;5077502;28;20231;-59
2021/06/28 11:02:05;;;;;;;5.07;3.57;;;;;;;-144.99;38.35;51952.81;5088466;28;20259;-59
2021/06/28 11:04:33;;;;;;;4.20;2.70;;;;;;;-144.99;38.66;51934.50;5070713;28;20211;-58
2021/06/28 11:07:18;;;;;;;5.13;3.50;;;;;;;-144.99;38.26;51910.03;5074612;28;20219;-58
2021/06/28 11:09:50;;;;;;;6.37;3.60;;;;;;;-144.99;38.86;51910.03;5076817;28;20238;-59
2021/06/28 11:12:25;;;;;;;3.77;3.07;;;;;;;-144.99;37.62;51918.19;5087786;28;20205;-59
2021/06/28 11:14:54;;;;;;;5.63;3.90;;;;;;;-144.99;37.54;51910.03;5096142;28;20199;-59
2021/06/28 11:17:22;;;;;;;6.87;5.30;;;;;;;-144.99;37.85;51942.63;5079979;28;20215;-59
2021/06/28 11:20:02;;;;;;;6.33;3.73;;;;;;;-144.99;38.45;51975.25;5069361;28;20732;-58
2021/06/28 11:22:51;;;;;;;5.20;3.23;;;;;;;-144.99;39.30;51963.03;5074619;28;20224;-59